Time;durP1;ratioP1;P1;durP2;ratioP2;P2;SDS_P1;SDS_P2;PMS_P1;PMS_P2;Temp;Humidity;BMP_temperature;BMP_pressure;BME280_temperature;BME280_humidity;BME280_pressure;Samples;Min_cycle;Max_cycle;Signal;HPM_P1;HPM_P2
2022/06/27 00:00:52;;;;;;;9.60;3.00;;;;;;;18.09;71.11;101468.41;5010233;28;20076;-75
2022/06/27 00:03:18;;;;;;;8.73;3.40;;;;;;;18.11;71.26;101471.72;5010359;28;20034;-75
2022/06/27 00:05:43;;;;;;;7.03;3.42;;;;;;;18.07;71.63;101475.97;5009599;28;20045;-74
2022/06/27 00:08:09;;;;;;;8.30;3.60;;;;;;;18.06;71.92;101473.44;5011120;28;20030;-75
2022/06/27 00:10:34;;;;;;;7.78;3.30;;;;;;;18.04;72.39;101476.41;5016567;28;20038;-75
2022/06/27 00:12:59;;;;;;;7.05;3.70;;;;;;;18.03;73.04;101482.88;5016767;28;20109;-75
2022/06/27 00:15:25;;;;;;;11.15;3.10;;;;;;;18.02;73.50;101477.66;5016743;28;20041;-75
2022/06/27 00:17:51;;;;;;;9.10;3.60;;;;;;;18.02;73.88;101469.50;5017065;28;20084;-75
2022/06/27 00:20:16;;;;;;;6.45;3.58;;;;;;;17.99;73.93;101473.47;5015482;28;20061;-75
2022/06/27 00:22:41;;;;;;;6.05;3.20;;;;;;;17.99;74.03;101474.31;5016710;28;20036;-74
2022/06/27 00:25:07;;;;;;;5.20;2.78;;;;;;;18.00;74.33;101480.59;5016780;28;20474;-75
2022/06/27 00:27:33;;;;;;;7.88;3.50;;;;;;;17.99;74.21;101474.31;5016646;28;20428;-75
2022/06/27 00:29:58;;;;;;;6.88;3.17;;;;;;;17.98;74.63;101477.25;5016665;28;20054;-75
2022/06/27 00:32:26;;;;;;;8.50;3.10;;;;;;;17.95;75.22;101475.78;5017270;28;20457;-75
2022/06/27 00:34:51;;;;;;;7.97;3.67;;;;;;;17.90;75.43;101474.75;5016456;28;20116;-75
2022/06/27 00:37:17;;;;;;;13.65;3.80;;;;;;;17.88;75.56;101482.34;5015330;28;20038;-75
2022/06/27 00:39:42;;;;;;;7.80;3.90;;;;;;;17.85;76.03;101477.28;5016291;28;20073;-75
2022/06/27 00:42:08;;;;;;;6.03;3.30;;;;;;;17.84;75.81;101481.91;5016479;28;20427;-74
2022/06/27 00:44:38;;;;;;;7.70;4.00;;;;;;;17.84;76.13;101497.41;5016886;28;20108;-75
2022/06/27 00:47:05;;;;;;;9.23;4.65;;;;;;;17.81;76.10;101492.41;5002899;28;20022;-75
2022/06/27 00:49:32;;;;;;;7.70;3.60;;;;;;;17.78;76.47;101494.47;5016852;28;20482;-75
2022/06/27 00:51:57;;;;;;;6.28;3.67;;;;;;;17.79;77.16;101498.03;5016775;28;20036;-74
2022/06/27 00:54:23;;;;;;;7.57;3.85;;;;;;;17.77;77.12;101502.81;5015225;28;20116;-75
2022/06/27 00:56:50;;;;;;;9.20;4.15;;;;;;;17.75;77.23;101505.78;5016034;28;20021;-75
2022/06/27 00:59:15;;;;;;;7.03;3.83;;;;;;;17.73;77.58;101505.16;5016737;28;20099;-75
2022/06/27 01:01:40;;;;;;;8.52;4.18;;;;;;;17.68;77.83;101510.41;5016501;28;20041;-75
2022/06/27 01:04:06;;;;;;;14.82;5.00;;;;;;;17.66;78.04;101501.59;5016648;28;20034;-75
2022/06/27 01:06:32;;;;;;;6.65;4.00;;;;;;;17.67;78.28;101503.28;5016148;28;20038;-75
2022/06/27 01:08:57;;;;;;;15.82;4.75;;;;;;;17.66;78.78;101490.72;5016547;28;20033;-75
2022/06/27 01:11:23;;;;;;;13.55;4.57;;;;;;;17.71;78.61;101496.34;5016150;28;20033;-75
2022/06/27 01:13:49;;;;;;;6.78;4.13;;;;;;;17.70;78.88;101497.41;5016614;28;20132;-75
2022/06/27 01:16:15;;;;;;;8.82;4.65;;;;;;;17.70;78.86;101493.88;5016451;28;20512;-75
2022/06/27 01:18:40;;;;;;;8.98;4.50;;;;;;;17.71;79.25;101492.81;5014806;28;20026;-75
2022/06/27 01:21:07;;;;;;;9.77;4.80;;;;;;;17.71;79.44;101487.34;5013003;28;20517;-75
2022/06/27 01:23:36;;;;;;;8.93;4.20;;;;;;;17.70;79.64;101491.97;5012832;28;20029;-75
2022/06/27 01:26:02;;;;;;;10.85;3.92;;;;;;;17.71;79.78;101485.47;5013089;28;20119;-75
2022/06/27 01:28:28;;;;;;;10.50;4.30;;;;;;;17.73;80.08;101482.53;5013217;28;20030;-75
2022/06/27 01:30:53;;;;;;;8.90;4.25;;;;;;;17.74;80.00;101485.03;5011520;28;20036;-75
2022/06/27 01:33:18;;;;;;;8.27;3.95;;;;;;;17.76;79.63;101490.28;5013242;28;20041;-75
2022/06/27 01:35:44;;;;;;;9.07;5.05;;;;;;;17.76;79.86;101490.28;5012424;28;20095;-75
2022/06/27 01:38:09;;;;;;;11.20;5.30;;;;;;;17.72;79.89;101489.00;5012754;28;20038;-75
2022/06/27 01:40:35;;;;;;;8.63;4.40;;;;;;;17.70;80.29;101497.41;5011503;28;20469;-75
2022/06/27 01:43:00;;;;;;;10.07;4.85;;;;;;;17.67;80.70;101486.97;5012702;28;20034;-75
2022/06/27 01:45:29;;;;;;;7.72;4.40;;;;;;;17.62;80.86;101486.75;5013161;28;20061;-75
2022/06/27 01:47:54;;;;;;;11.98;4.72;;;;;;;17.59;81.05;101489.06;5012893;28;20080;-75
2022/06/27 01:50:20;;;;;;;15.45;5.22;;;;;;;17.56;80.87;101476.69;5012853;28;20378;-75
2022/06/27 01:52:49;;;;;;;12.52;4.57;;;;;;;17.55;81.11;101477.75;5011347;28;20036;-75
2022/06/27 01:55:14;;;;;;;8.18;4.72;;;;;;;17.55;81.31;101472.31;5012880;28;20418;-75
2022/06/27 01:57:40;;;;;;;7.22;5.05;;;;;;;17.57;81.13;101470.22;5012369;28;20057;-75
2022/06/27 02:00:07;;;;;;;11.48;5.60;;;;;;;17.58;80.92;101466.44;5028017;28;20033;-75
2022/06/27 02:02:33;;;;;;;11.23;5.07;;;;;;;17.58;80.95;101466.44;5012655;28;20026;-75
2022/06/27 02:04:58;;;;;;;11.43;5.30;;;;;;;17.57;81.09;101458.50;5012728;28;20037;-75
2022/06/27 02:07:24;;;;;;;9.35;5.20;;;;;;;17.61;81.01;101460.56;4994245;28;20022;-75
2022/06/27 02:09:50;;;;;;;11.18;5.45;;;;;;;17.59;81.09;101462.69;5011242;28;20037;-75
2022/06/27 02:12:18;;;;;;;9.57;5.55;;;;;;;17.55;81.38;101464.16;5012654;28;20025;-75
2022/06/27 02:14:47;;;;;;;10.75;5.90;;;;;;;17.51;81.80;101465.66;5011145;28;20042;-75
2022/06/27 02:17:12;;;;;;;14.23;5.82;;;;;;;17.54;81.49;101451.59;5012146;28;20042;-75
2022/06/27 02:19:37;;;;;;;10.70;5.82;;;;;;;17.50;81.65;101450.34;5012659;28;20030;-74
2022/06/27 02:22:03;;;;;;;12.93;6.35;;;;;;;17.45;81.79;101440.09;5011978;28;20026;-75
2022/06/27 02:24:29;;;;;;;8.65;5.55;;;;;;;17.39;81.98;101446.41;4993017;28;20113;-76
2022/06/27 02:26:54;;;;;;;11.40;6.30;;;;;;;17.32;82.73;101451.88;4994040;28;20056;-75
2022/06/27 02:29:20;;;;;;;12.68;5.50;;;;;;;17.26;83.06;101449.97;4992693;28;20059;-75
2022/06/27 02:31:49;;;;;;;8.85;5.60;;;;;;;17.23;83.40;101450.41;4991719;28;20643;-75
2022/06/27 02:34:15;;;;;;;9.30;5.30;;;;;;;17.20;83.17;101450.81;5058291;23;20129;-33
2022/06/27 02:36:41;;;;;;;13.18;5.65;;;;;;;17.18;83.75;101454.81;5014831;28;20092;-34
2022/06/27 02:39:07;;;;;;;8.65;5.50;;;;;;;17.17;83.98;101453.13;5030570;28;20056;-32
2022/06/27 02:41:33;;;;;;;14.32;5.55;;;;;;;17.15;84.20;101450.63;5031512;28;20121;-32
2022/06/27 02:44:05;;;;;;;7.90;4.97;;;;;;;17.14;84.27;101450.81;5010911;28;20022;-31
2022/06/27 02:46:31;;;;;;;11.95;5.65;;;;;;;17.10;84.47;101450.41;5011245;28;20449;-32
2022/06/27 02:48:58;;;;;;;11.35;5.97;;;;;;;17.08;84.38;101457.94;5029576;28;20033;-33
2022/06/27 02:51:28;;;;;;;9.57;5.68;;;;;;;17.03;84.26;101447.69;5031673;28;20404;-32
2022/06/27 02:54:21;;;;;;;11.02;5.40;;;;;;;17.01;84.36;101448.94;5030707;28;20037;-31
2022/06/27 02:56:52;;;;;;;9.30;5.40;;;;;;;16.97;84.58;101444.97;5030759;28;20137;-31
2022/06/27 02:59:24;;;;;;;10.25;5.72;;;;;;;16.91;85.11;101440.41;5031981;28;20042;-32
2022/06/27 03:01:50;;;;;;;12.00;5.90;;;;;;;16.86;85.59;101446.44;5017597;28;20042;-32
2022/06/27 03:04:15;;;;;;;10.73;6.20;;;;;;;16.82;85.86;101443.28;5025114;28;20056;-32
2022/06/27 03:06:41;;;;;;;14.25;6.82;;;;;;;16.81;86.31;101433.47;5031793;28;20037;-32
2022/06/27 03:09:07;;;;;;;14.27;7.35;;;;;;;16.79;86.35;101434.72;5020514;28;20072;-32
2022/06/27 03:11:33;;;;;;;16.05;6.97;;;;;;;16.80;86.50;101439.97;5031737;28;20029;-32
2022/06/27 03:13:58;;;;;;;18.55;7.55;;;;;;;16.77;86.48;101434.94;5031762;28;20033;-33
2022/06/27 03:16:24;;;;;;;10.85;6.80;;;;;;;16.77;86.64;101434.06;5031877;28;20420;-32
2022/06/27 03:18:50;;;;;;;14.68;7.60;;;;;;;16.76;86.58;101430.50;5031147;28;20105;-32
2022/06/27 03:21:20;;;;;;;13.82;7.28;;;;;;;16.74;86.63;101440.75;5029865;28;20457;-33
2022/06/27 03:23:49;;;;;;;13.63;7.03;;;;;;;16.73;87.09;101436.38;5031789;28;20114;-33
2022/06/27 03:26:14;;;;;;;15.82;7.38;;;;;;;16.70;87.41;101431.34;5031855;28;20033;-34
2022/06/27 03:28:40;;;;;;;15.80;8.45;;;;;;;16.66;87.58;101435.53;5031033;28;20036;-32
2022/06/27 03:31:05;;;;;;;15.95;8.27;;;;;;;16.64;87.56;101426.72;5031067;28;20041;-32
2022/06/27 03:33:31;;;;;;;14.20;8.60;;;;;;;16.59;87.78;101427.38;5025044;28;20046;-33
2022/06/27 03:35:56;;;;;;;19.13;8.10;;;;;;;16.58;88.07;101430.28;5011091;28;20041;-33
2022/06/27 03:38:22;;;;;;;18.77;9.23;;;;;;;16.59;87.81;101429.25;5011414;28;20038;-32
2022/06/27 03:40:47;;;;;;;15.18;8.55;;;;;;;16.51;87.90;101422.16;5011394;28;20057;-33
2022/06/27 03:43:13;;;;;;;15.77;8.75;;;;;;;16.48;88.46;101427.13;5011174;28;20461;-33
2022/06/27 03:45:38;;;;;;;16.05;8.95;;;;;;;16.44;89.32;101435.69;5011279;28;20157;-32
2022/06/27 03:48:04;;;;;;;14.25;9.05;;;;;;;16.44;89.62;101422.13;5010635;28;20049;-33
2022/06/27 03:50:29;;;;;;;17.25;8.65;;;;;;;16.46;89.97;101411.88;5010293;28;20034;-33
2022/06/27 03:52:55;;;;;;;10.77;8.45;;;;;;;16.49;89.80;101407.91;5011527;28;20484;-34
2022/06/27 03:55:22;;;;;;;14.15;8.52;;;;;;;16.52;89.86;101399.34;5011205;28;20034;-34
2022/06/27 03:57:56;;;;;;;14.47;8.10;;;;;;;16.54;89.46;101404.59;5010938;28;20112;-33
2022/06/27 04:00:24;;;;;;;12.02;8.02;;;;;;;16.53;89.20;101409.16;5009435;28;20042;-33
2022/06/27 04:02:50;;;;;;;15.27;8.50;;;;;;;16.52;89.26;101406.66;5011269;28;20030;-33
2022/06/27 04:05:16;;;;;;;19.50;8.95;;;;;;;16.51;88.97;101413.13;5011049;28;20099;-33
2022/06/27 04:07:41;;;;;;;16.35;8.40;;;;;;;16.52;88.88;101414.81;5011054;28;20033;-32
2022/06/27 04:10:12;;;;;;;19.05;8.35;;;;;;;16.50;88.84;101422.34;5010811;28;20041;-33
2022/06/27 04:12:41;;;;;;;15.80;8.35;;;;;;;16.51;88.66;101424.00;5010933;28;20439;-32
2022/06/27 04:15:07;;;;;;;17.17;9.30;;;;;;;16.50;88.72;101422.34;5010888;28;20456;-32
2022/06/27 04:17:33;;;;;;;16.70;8.77;;;;;;;16.51;89.27;101429.44;5010678;28;20056;-33
2022/06/27 04:19:58;;;;;;;12.77;8.35;;;;;;;16.52;89.93;101425.69;5011020;28;20128;-33
2022/06/27 04:22:24;;;;;;;16.13;9.57;;;;;;;16.52;90.13;101415.66;5010366;28;20157;-33
2022/06/27 04:24:49;;;;;;;19.67;9.20;;;;;;;16.56;90.51;101421.50;5010922;28;20093;-33
2022/06/27 04:27:17;;;;;;;15.93;9.00;;;;;;;16.59;90.34;101412.97;5010754;28;20022;-32
2022/06/27 04:29:43;;;;;;;11.65;8.15;;;;;;;16.64;90.18;101421.28;5010776;28;20084;-31
2022/06/27 04:32:09;;;;;;;16.17;9.00;;;;;;;16.70;90.17;101408.78;5008740;28;20117;-34
2022/06/27 04:34:35;;;;;;;23.13;9.95;;;;;;;16.75;90.09;101400.84;5010761;28;20069;-34
2022/06/27 04:37:03;;;;;;;13.07;8.00;;;;;;;16.83;89.81;101393.34;5025326;28;20026;-33
2022/06/27 04:39:29;;;;;;;14.30;8.20;;;;;;;16.89;89.35;101389.75;5009143;28;20026;-32
2022/06/27 04:41:55;;;;;;;14.65;7.65;;;;;;;16.94;88.53;101372.00;5007984;28;20041;-32
2022/06/27 04:44:20;;;;;;;13.93;8.38;;;;;;;17.01;88.46;101362.78;5011095;28;20022;-32
2022/06/27 04:46:48;;;;;;;14.43;8.38;;;;;;;17.04;88.33;101356.09;5009388;28;20492;-33
2022/06/27 04:49:15;;;;;;;15.55;7.85;;;;;;;17.07;88.36;101361.09;5023227;28;20041;-31
2022/06/27 04:51:41;;;;;;;11.98;8.75;;;;;;;17.07;88.45;101361.09;5009340;28;20041;-31
2022/06/27 04:54:08;;;;;;;20.83;8.77;;;;;;;17.07;88.19;101369.25;5010676;28;20018;-32
2022/06/27 04:56:35;;;;;;;17.30;8.07;;;;;;;17.02;88.14;101380.75;5005420;28;20030;-32
2022/06/27 04:59:00;;;;;;;17.70;8.85;;;;;;;16.98;88.11;101374.09;5014253;28;20066;-33
2022/06/27 05:01:25;;;;;;;16.52;9.07;;;;;;;16.94;88.50;101378.25;4996125;28;20034;-33
2022/06/27 05:03:51;;;;;;;13.90;8.40;;;;;;;16.95;88.76;101373.66;5013803;28;20037;-31
2022/06/27 05:06:16;;;;;;;22.42;8.85;;;;;;;16.93;88.43;101370.31;5012689;28;20041;-33
2022/06/27 05:08:41;;;;;;;17.30;8.30;;;;;;;16.92;88.33;101374.91;5012882;28;20026;-32
2022/06/27 05:11:07;;;;;;;16.73;9.80;;;;;;;16.93;88.26;101371.16;5013290;28;20026;-32
2022/06/27 05:13:32;;;;;;;23.27;9.65;;;;;;;16.98;88.57;101373.22;5013184;28;20062;-33
2022/06/27 05:15:58;;;;;;;14.35;9.05;;;;;;;17.12;88.93;101374.91;5013417;28;20030;-31
2022/06/27 05:18:24;;;;;;;18.60;8.80;;;;;;;17.24;88.89;101384.06;5013006;28;20030;-32
2022/06/27 05:20:50;;;;;;;16.30;9.18;;;;;;;17.37;88.50;101394.06;5012945;28;20145;-32
2022/06/27 05:23:15;;;;;;;13.57;8.52;;;;;;;17.46;88.19;101402.84;5012091;28;20076;-33
2022/06/27 05:25:41;;;;;;;16.77;10.05;;;;;;;17.47;87.88;101397.19;5012500;28;20384;-32
2022/06/27 05:28:07;;;;;;;14.80;9.70;;;;;;;17.45;87.58;101390.28;5011723;28;20022;-32
2022/06/27 05:30:33;;;;;;;18.08;9.73;;;;;;;17.44;87.70;101396.78;5012718;28;20037;-33
2022/06/27 05:32:59;;;;;;;15.82;10.05;;;;;;;17.43;87.41;101386.94;5012387;28;20109;-33
2022/06/27 05:35:24;;;;;;;17.30;10.00;;;;;;;17.47;87.52;101399.06;5010959;28;20075;-34
2022/06/27 05:37:50;;;;;;;13.73;9.80;;;;;;;17.50;87.44;101404.91;5009490;28;20362;-33
2022/06/27 05:40:16;;;;;;;18.10;9.48;;;;;;;17.50;87.22;101409.53;5010124;28;20042;-33
2022/06/27 05:42:42;;;;;;;15.07;9.88;;;;;;;17.51;87.47;101420.22;4999049;28;20026;-33
2022/06/27 05:45:08;;;;;;;17.45;9.65;;;;;;;17.54;87.40;101416.22;5011160;28;20030;-32
2022/06/27 05:47:35;;;;;;;16.27;9.47;;;;;;;17.57;87.58;101415.78;5011097;28;20030;-33
2022/06/27 05:50:03;;;;;;;16.37;9.73;;;;;;;17.64;87.46;101416.63;5010915;28;20056;-32
2022/06/27 05:52:29;;;;;;;15.85;9.80;;;;;;;17.69;87.46;101430.41;5010982;28;20366;-32
2022/06/27 05:54:55;;;;;;;14.40;10.07;;;;;;;17.72;87.07;101419.09;5013174;28;20113;-32
2022/06/27 05:57:20;;;;;;;20.30;9.93;;;;;;;17.81;86.56;101436.06;5012772;28;20060;-32
2022/06/27 05:59:46;;;;;;;16.67;10.18;;;;;;;17.81;85.47;101446.94;5012384;28;20029;-33
2022/06/27 06:02:12;;;;;;;20.75;10.65;;;;;;;17.81;85.64;101449.66;5012264;28;20030;-32
2022/06/27 06:04:38;;;;;;;17.83;10.27;;;;;;;17.87;85.74;101464.31;5012224;28;20034;-33
2022/06/27 06:07:04;;;;;;;16.83;9.52;;;;;;;17.99;85.77;101470.75;5011525;28;20392;-33
2022/06/27 06:09:29;;;;;;;13.57;9.43;;;;;;;18.04;85.60;101460.06;5012525;28;20033;-32
2022/06/27 06:11:55;;;;;;;17.83;10.50;;;;;;;18.07;85.17;101465.06;5011881;28;20106;-32
2022/06/27 06:14:21;;;;;;;23.33;10.70;;;;;;;18.09;84.68;101462.97;5012588;28;20455;-33
2022/06/27 06:16:48;;;;;;;18.50;10.40;;;;;;;18.15;84.11;101453.91;5012267;28;20473;-33
2022/06/27 06:19:13;;;;;;;18.27;10.70;;;;;;;18.18;83.40;101461.66;5012458;28;20120;-32
2022/06/27 06:21:39;;;;;;;17.52;10.07;;;;;;;18.23;83.56;101469.19;5012341;28;20101;-32
2022/06/27 06:24:05;;;;;;;19.38;10.32;;;;;;;18.30;83.65;101471.84;5012218;28;20123;-32
2022/06/27 06:26:30;;;;;;;18.38;9.98;;;;;;;18.41;83.32;101477.47;5012999;28;20033;-32
2022/06/27 06:28:58;;;;;;;16.10;10.30;;;;;;;18.53;82.39;101480.31;5013973;28;20034;-31
2022/06/27 06:31:24;;;;;;;15.82;9.68;;;;;;;18.53;82.20;101483.03;5014025;28;20056;-31
2022/06/27 06:33:50;;;;;;;20.67;10.88;;;;;;;18.35;81.56;101480.22;5014017;28;20153;-32
2022/06/27 06:36:17;;;;;;;17.77;11.00;;;;;;;18.32;82.28;101481.47;5014645;28;20026;-32
2022/06/27 06:38:42;;;;;;;17.00;10.65;;;;;;;18.38;82.92;101491.53;5012386;28;20489;-31
2022/06/27 06:41:08;;;;;;;21.95;11.68;;;;;;;18.37;82.64;101503.47;5013096;28;20033;-30
2022/06/27 06:43:34;;;;;;;21.17;10.48;;;;;;;18.52;82.26;101500.47;5011384;28;20037;-31
2022/06/27 06:45:59;;;;;;;20.55;11.45;;;;;;;18.42;81.73;101506.38;4977893;28;20030;-30
2022/06/27 06:48:25;;;;;;;28.75;11.57;;;;;;;18.39;81.22;101500.53;5005045;28;20026;-32
2022/06/27 06:50:50;;;;;;;22.27;12.30;;;;;;;18.37;81.62;101499.91;5007092;28;20026;-31
2022/06/27 06:53:16;;;;;;;25.63;11.20;;;;;;;18.32;81.69;101478.75;5011238;28;20434;-32
2022/06/27 06:55:42;;;;;;;20.52;10.63;;;;;;;18.36;81.83;101469.09;5011543;28;20424;-32
2022/06/27 06:58:08;;;;;;;15.10;10.32;;;;;;;18.43;81.93;101466.31;5009619;28;20057;-31
2022/06/27 07:00:34;;;;;;;21.25;11.05;;;;;;;18.48;82.09;101450.16;5011399;28;20489;-31
2022/06/27 07:02:59;;;;;;;21.65;10.38;;;;;;;18.58;81.45;101455.97;5011265;28;20042;-31
2022/06/27 07:05:25;;;;;;;27.65;11.05;;;;;;;18.59;81.65;101452.19;5010608;28;20073;-31
2022/06/27 07:07:51;;;;;;;21.00;10.27;;;;;;;18.65;81.56;101448.56;5012218;28;20032;-32
2022/06/27 07:10:18;;;;;;;22.58;11.10;;;;;;;18.73;80.79;101433.84;5011449;28;20167;-31
2022/06/27 07:12:44;;;;;;;17.42;11.43;;;;;;;18.69;79.99;101423.59;5011151;28;20062;-32
2022/06/27 07:15:10;;;;;;;18.15;10.90;;;;;;;18.81;80.12;101428.13;5011777;28;20080;-30
2022/06/27 07:17:45;;;;;;;20.50;11.10;;;;;;;18.88;79.99;101449.91;5010846;28;20041;-31
2022/06/27 07:20:11;;;;;;;22.38;10.25;;;;;;;19.41;79.03;101459.50;5009801;28;20037;-32
2022/06/27 07:22:38;;;;;;;18.02;10.50;;;;;;;19.74;77.22;101440.03;5011073;28;20030;-33
2022/06/27 07:25:04;;;;;;;21.85;11.15;;;;;;;20.17;75.75;101439.09;5011474;28;20076;-33
2022/06/27 07:27:31;;;;;;;14.68;10.50;;;;;;;20.59;71.35;101433.69;5010391;28;20385;-33
2022/06/27 07:29:57;;;;;;;23.33;9.38;;;;;;;20.51;69.88;101443.03;5010861;28;20044;-33
2022/06/27 07:32:23;;;;;;;22.30;10.80;;;;;;;20.26;70.26;101461.47;5009293;28;20358;-33
2022/06/27 07:34:48;;;;;;;19.75;10.32;;;;;;;20.02;72.05;101442.22;5008542;28;20085;-32
2022/06/27 07:37:14;;;;;;;16.15;9.65;;;;;;;19.93;72.74;101444.44;5012462;28;20026;-33
2022/06/27 07:39:40;;;;;;;21.73;10.52;;;;;;;19.80;73.27;101468.34;5011203;28;20140;-32
2022/06/27 07:42:06;;;;;;;20.45;10.13;;;;;;;19.78;73.79;101467.75;5011349;28;20021;-33
2022/06/27 07:44:34;;;;;;;22.38;11.27;;;;;;;19.72;73.55;101483.13;5007815;28;20026;-33
2022/06/27 07:47:01;;;;;;;20.42;10.93;;;;;;;19.65;73.72;101482.34;5011120;28;20030;-32
2022/06/27 07:49:26;;;;;;;22.45;11.48;;;;;;;19.58;74.16;101487.03;5001431;28;20093;-30
2022/06/27 07:51:52;;;;;;;20.48;10.57;;;;;;;19.55;74.72;101485.59;5008079;28;20438;-30
2022/06/27 07:54:19;;;;;;;17.83;9.30;;;;;;;19.52;72.90;101483.31;5011428;28;20124;-32
2022/06/27 07:56:46;;;;;;;20.43;9.17;;;;;;;19.32;72.19;101478.06;5011109;28;20037;-33
2022/06/27 07:59:13;;;;;;;15.25;8.60;;;;;;;19.35;72.23;101476.78;4997874;28;20419;-33
2022/06/27 08:01:40;;;;;;;15.20;8.35;;;;;;;19.40;72.31;101483.22;4998934;28;20428;-32
2022/06/27 08:04:07;;;;;;;20.13;8.50;;;;;;;19.30;72.27;101496.56;5009486;28;20029;-32
2022/06/27 08:06:33;;;;;;;13.15;8.27;;;;;;;19.34;71.64;101492.31;5004146;28;20663;-32
2022/06/27 08:09:01;;;;;;;13.57;7.90;;;;;;;19.39;70.28;101484.28;5010902;28;20037;-32
2022/06/27 08:11:32;;;;;;;16.58;7.50;;;;;;;19.43;69.22;101496.44;5010166;28;20580;-31
2022/06/27 08:14:06;;;;;;;21.13;8.77;;;;;;;19.49;69.38;101492.81;5009138;28;20397;-32
2022/06/27 08:16:32;;;;;;;16.17;7.75;;;;;;;19.60;70.04;101479.47;5010663;28;20034;-32
2022/06/27 08:18:58;;;;;;;23.03;8.10;;;;;;;19.72;70.03;101466.75;5004327;28;20041;-33
2022/06/27 08:21:25;;;;;;;15.65;7.07;;;;;;;19.77;69.73;101458.69;4991509;28;20362;-33
2022/06/27 08:23:53;;;;;;;16.30;6.03;;;;;;;19.85;69.46;101460.28;4997974;28;20436;-33
2022/06/27 08:26:20;;;;;;;16.40;6.65;;;;;;;19.84;67.14;101464.94;5009554;28;20030;-31
2022/06/27 08:28:47;;;;;;;17.00;6.82;;;;;;;20.05;67.11;101466.34;5011709;28;20108;-31
2022/06/27 08:31:13;;;;;;;9.83;6.00;;;;;;;20.45;66.78;101475.91;5014457;28;20034;-31
2022/06/27 08:33:40;;;;;;;18.77;6.57;;;;;;;20.91;64.89;101464.31;5013647;28;20062;-32
2022/06/27 08:36:07;;;;;;;16.02;7.22;;;;;;;21.05;63.59;101471.22;5013534;28;20121;-32
2022/06/27 08:38:39;;;;;;;13.82;6.03;;;;;;;21.07;62.71;101484.66;5014250;28;20060;-33
2022/06/27 08:41:04;;;;;;;11.88;5.88;;;;;;;21.60;60.38;101499.34;5014468;28;20420;-32
2022/06/27 08:43:30;;;;;;;18.00;6.38;;;;;;;21.91;58.85;101520.03;5013763;28;20084;-33
2022/06/27 08:45:57;;;;;;;13.15;5.65;;;;;;;21.78;58.46;101517.56;5003721;28;20030;-33
2022/06/27 08:48:23;;;;;;;12.23;5.18;;;;;;;21.33;59.94;101507.16;4997488;28;20476;-31
2022/06/27 08:50:50;;;;;;;12.65;5.63;;;;;;;21.14;59.23;101517.38;5010160;28;20038;-33
2022/06/27 08:53:17;;;;;;;8.35;4.32;;;;;;;21.07;59.76;101522.16;5014517;28;20029;-34
2022/06/27 08:55:45;;;;;;;9.45;4.28;;;;;;;21.23;58.22;101514.06;5013396;28;20084;-32
2022/06/27 08:58:11;;;;;;;15.05;5.13;;;;;;;21.22;59.10;101511.56;5013682;28;20022;-33
2022/06/27 09:00:40;;;;;;;15.95;4.50;;;;;;;21.12;59.87;101512.16;5013581;28;20033;-34
2022/06/27 09:03:07;;;;;;;8.68;4.85;;;;;;;20.86;60.37;101515.34;5013895;28;20022;-33
2022/06/27 09:05:33;;;;;;;10.68;4.90;;;;;;;20.61;60.28;101508.94;5013071;28;20041;-32
2022/06/27 09:08:04;;;;;;;13.65;4.95;;;;;;;20.43;61.34;101511.69;5013879;28;20022;-33
2022/06/27 09:10:32;;;;;;;10.63;4.05;;;;;;;20.48;62.50;101521.94;5013371;28;20421;-32
2022/06/27 09:13:06;;;;;;;12.35;4.22;;;;;;;20.53;61.12;101516.59;5014533;28;20100;-32
2022/06/27 09:15:50;;;;;;;8.85;4.13;;;;;;;20.59;60.82;101513.00;5013959;28;20061;-33
2022/06/27 09:18:18;;;;;;;10.75;4.72;;;;;;;20.66;61.02;101510.97;5012892;28;20521;-33
2022/06/27 09:20:50;;;;;;;14.85;5.20;;;;;;;20.62;61.54;101520.72;5005993;28;20482;-34
2022/06/27 09:23:29;;;;;;;16.67;5.28;;;;;;;20.49;62.09;101515.41;5014444;28;20112;-33
2022/06/27 09:26:06;;;;;;;13.77;4.68;;;;;;;20.50;63.13;101508.88;5012675;28;20052;-32
2022/06/27 09:29:12;;;;;;;10.05;4.30;;;;;;;20.47;61.66;101512.06;5013257;28;20080;-33
2022/06/27 09:31:46;;;;;;;15.47;4.27;;;;;;;20.71;61.41;101505.63;5013457;28;20140;-33
2022/06/27 09:34:20;;;;;;;11.60;3.45;;;;;;;21.15;59.98;101511.69;5012067;28;20159;-33
2022/06/27 09:36:57;;;;;;;12.05;3.38;;;;;;;21.13;58.21;101522.03;4993654;28;20081;-32
2022/06/27 09:39:32;;;;;;;9.30;3.83;;;;;;;21.46;57.71;101517.94;4996265;28;20473;-32
2022/06/27 09:42:05;;;;;;;13.27;4.10;;;;;;;21.34;58.14;101519.81;5011824;28;20132;-33
2022/06/27 09:44:45;;;;;;;10.27;3.75;;;;;;;21.35;59.19;101524.19;5013915;28;20033;-34
2022/06/27 09:47:21;;;;;;;17.95;4.95;;;;;;;21.56;58.09;101536.50;5000422;28;20030;-32
2022/06/27 09:49:52;;;;;;;12.15;4.53;;;;;;;21.57;58.89;101528.06;5011147;28;20034;-34
2022/06/27 09:52:22;;;;;;;13.57;5.00;;;;;;;21.41;60.03;101528.78;5013324;28;20469;-33
2022/06/27 09:54:49;;;;;;;14.85;4.95;;;;;;;21.38;59.33;101521.88;5012500;28;20034;-33
2022/06/27 09:57:16;;;;;;;10.77;4.22;;;;;;;21.64;60.13;101517.81;5012021;28;20456;-33
2022/06/27 09:59:44;;;;;;;10.10;4.20;;;;;;;21.77;59.05;101527.66;5013670;28;20026;-33
2022/06/27 10:02:09;;;;;;;11.20;4.10;;;;;;;22.04;57.22;101528.00;5012295;28;20048;-34
2022/06/27 10:04:36;;;;;;;17.55;4.47;;;;;;;21.74;57.10;101521.84;5011375;28;20547;-33
2022/06/27 10:07:03;;;;;;;8.10;4.20;;;;;;;21.52;57.30;101514.25;5011765;28;20076;-32
2022/06/27 10:09:30;;;;;;;11.77;3.92;;;;;;;21.63;58.51;101516.13;5026013;28;20110;-32
2022/06/27 10:12:24;;;;;;;5.95;3.42;;;;;;;21.72;58.13;101518.50;5026067;28;20101;-34
2022/06/27 10:15:11;;;;;;;9.15;2.90;;;;;;;21.62;58.49;101505.44;5013312;28;20034;-33
2022/06/27 10:17:52;;;;;;;7.57;2.80;;;;;;;21.41;55.70;101515.09;5012866;28;20049;-34
2022/06/27 10:20:27;;;;;;;14.73;2.67;;;;;;;21.19;54.73;101514.78;5009095;28;20077;-35
2022/06/27 10:23:11;;;;;;;10.02;2.95;;;;;;;20.98;55.70;101519.72;5006151;28;20465;-33
2022/06/27 10:25:37;;;;;;;6.32;2.22;;;;;;;21.09;56.71;101520.00;5007842;28;20033;-34
2022/06/27 10:28:09;;;;;;;13.68;2.75;;;;;;;20.96;55.58;101523.81;5011992;28;20041;-35
2022/06/27 10:30:44;;;;;;;9.23;2.15;;;;;;;20.81;56.23;101518.75;5012741;28;20036;-34
2022/06/27 10:33:21;;;;;;;7.05;1.98;;;;;;;20.67;56.25;101511.78;5011589;28;20426;-32
2022/06/27 10:36:10;;;;;;;9.10;2.50;;;;;;;20.76;57.66;101507.69;5012170;28;20124;-34
2022/06/27 10:38:38;;;;;;;5.13;2.28;;;;;;;20.74;56.21;101504.34;5012558;28;20022;-33
2022/06/27 10:41:31;;;;;;;11.10;2.60;;;;;;;20.71;56.62;101508.38;5012454;28;20077;-33
2022/06/27 10:43:59;;;;;;;10.20;2.15;;;;;;;20.57;57.49;101510.47;5005601;28;20402;-34
2022/06/27 10:46:24;;;;;;;6.53;2.15;;;;;;;20.60;57.12;101518.22;4991732;28;20511;-33
2022/06/27 10:48:54;;;;;;;4.45;2.13;;;;;;;20.59;55.40;101507.53;4992700;28;20474;-33
2022/06/27 10:51:21;;;;;;;11.02;2.03;;;;;;;20.60;54.65;101512.75;4992456;28;20311;-33
2022/06/27 10:53:46;;;;;;;6.82;2.22;;;;;;;20.91;54.78;101519.03;4991470;28;20093;-32
2022/06/27 10:56:31;;;;;;;8.10;2.05;;;;;;;21.00;56.38;101511.31;4992304;28;20118;-33
2022/06/27 10:58:57;;;;;;;9.25;2.80;;;;;;;21.07;56.55;101517.50;4992651;28;20033;-33
2022/06/27 11:01:23;;;;;;;10.10;3.22;;;;;;;21.14;56.22;101517.38;4992651;28;20053;-33
2022/06/27 11:03:49;;;;;;;8.13;2.97;;;;;;;21.35;56.49;101505.84;4992686;28;20837;-32
2022/06/27 11:06:15;;;;;;;9.13;2.90;;;;;;;21.61;55.33;101512.78;4992552;28;20022;-34
2022/06/27 11:08:42;;;;;;;7.95;2.38;;;;;;;22.04;54.16;101514.28;4992341;28;20058;-32
2022/06/27 11:11:09;;;;;;;9.93;3.00;;;;;;;21.92;54.43;101519.78;4990945;28;20113;-34
2022/06/27 11:13:39;;;;;;;12.55;3.05;;;;;;;22.08;54.37;101509.16;4974549;28;20023;-34
2022/06/27 11:16:05;;;;;;;21.08;3.90;;;;;;;21.87;55.15;101516.09;4992254;28;20027;-33
2022/06/27 11:18:49;;;;;;;9.10;3.40;;;;;;;21.67;55.90;101511.84;4992068;28;20474;-33